createdAt,value
2022-11-02T00:00:39.332Z,515.15
2022-11-02T00:03:05.841Z,509.33
2022-11-02T00:05:32.679Z,507.45
2022-11-02T00:07:59.027Z,499.17
2022-11-02T00:10:25.289Z,498.75
2022-11-02T00:12:51.722Z,503.60
2022-11-02T00:15:18.122Z,487.98
2022-11-02T00:17:44.458Z,485.02
2022-11-02T00:20:10.876Z,491.33
2022-11-02T00:22:37.310Z,479.38
2022-11-02T00:25:03.770Z,474.88
2022-11-02T00:27:30.264Z,473.52
2022-11-02T00:29:56.520Z,461.83
2022-11-02T00:32:22.940Z,460.98
2022-11-02T00:34:49.552Z,458.08
2022-11-02T00:37:15.984Z,453.20
2022-11-02T00:39:42.324Z,458.92
2022-11-02T00:42:08.610Z,450.63
2022-11-02T00:44:34.925Z,446.88
2022-11-02T00:47:01.337Z,445.73
2022-11-02T00:49:27.680Z,436.60
2022-11-02T00:51:53.960Z,427.75
2022-11-02T00:54:24.478Z,435.48
2022-11-02T00:56:53.892Z,425.45
2022-11-02T00:59:20.328Z,422.42
2022-11-02T01:01:46.643Z,415.80
2022-11-02T01:04:13.928Z,421.27
2022-11-02T01:06:40.380Z,409.95
2022-11-02T01:09:06.795Z,406.48
2022-11-02T01:11:33.158Z,404.17
2022-11-02T01:13:59.535Z,398.63
2022-11-02T01:16:26.120Z,394.92
2022-11-02T01:18:52.402Z,390.60
2022-11-02T01:21:18.746Z,382.25
2022-11-02T01:23:45.055Z,390.00
2022-11-02T01:26:11.722Z,385.10
2022-11-02T01:28:38.169Z,374.73
2022-11-02T01:31:04.534Z,372.45
2022-11-02T01:33:30.927Z,372.38
2022-11-02T01:35:57.391Z,371.67
2022-11-02T01:38:23.812Z,368.15
2022-11-02T01:40:51.852Z,360.85
2022-11-02T01:43:18.682Z,360.65
2022-11-02T01:45:45.134Z,359.67
2022-11-02T01:48:11.542Z,357.33
2022-11-02T01:50:38.019Z,351.08
2022-11-02T01:53:04.390Z,342.13
2022-11-02T01:55:30.938Z,341.38
2022-11-02T01:57:57.264Z,342.40
2022-11-02T02:00:23.632Z,337.42
2022-11-02T02:02:50.032Z,332.35
2022-11-02T02:05:16.430Z,332.25
2022-11-02T02:07:43.230Z,323.98
2022-11-02T02:10:09.616Z,319.98
2022-11-02T02:12:36.088Z,322.48
2022-11-02T02:15:02.588Z,322.08
2022-11-02T02:17:29.084Z,314.08
2022-11-02T02:19:55.910Z,307.60
2022-11-02T02:22:22.354Z,303.77
2022-11-02T02:24:48.748Z,303.73
2022-11-02T02:27:15.120Z,297.38
2022-11-02T02:29:41.543Z,301.40
2022-11-02T02:32:07.858Z,290.70
2022-11-02T02:34:34.127Z,292.83
2022-11-02T02:37:00.871Z,288.60
2022-11-02T02:39:27.456Z,285.80
2022-11-02T02:41:53.898Z,281.20
2022-11-02T02:44:20.194Z,281.70
2022-11-02T02:46:46.823Z,274.55
2022-11-02T02:49:13.091Z,276.30
2022-11-02T02:51:39.719Z,274.40
2022-11-02T02:54:06.345Z,270.50
2022-11-02T02:56:32.910Z,268.38
2022-11-02T02:58:59.382Z,265.60
2022-11-02T03:01:25.717Z,265.95
2022-11-02T03:03:52.314Z,256.33
2022-11-02T03:06:18.543Z,259.73
2022-11-02T03:08:45.047Z,253.32
2022-11-02T03:11:11.366Z,249.23
2022-11-02T03:13:37.696Z,250.88
2022-11-02T03:16:03.991Z,245.57
2022-11-02T03:18:30.336Z,241.25
2022-11-02T03:20:56.655Z,242.45
2022-11-02T03:23:23.023Z,237.35
2022-11-02T03:25:49.466Z,238.85
2022-11-02T03:28:15.704Z,234.00
2022-11-02T03:30:42.002Z,227.27
2022-11-02T03:33:09.299Z,226.23
2022-11-02T03:35:35.719Z,225.82
2022-11-02T03:38:02.401Z,227.55
2022-11-02T03:40:29.049Z,222.15
2022-11-02T03:42:55.559Z,218.43
2022-11-02T03:45:21.789Z,216.55
2022-11-02T03:47:48.073Z,216.70
2022-11-02T03:50:14.617Z,209.18
2022-11-02T03:52:41.222Z,207.77
2022-11-02T03:55:07.491Z,203.45
2022-11-02T03:57:33.741Z,202.65
2022-11-02T03:59:59.987Z,198.23
2022-11-02T04:02:26.566Z,198.75
2022-11-02T04:04:52.873Z,195.32
2022-11-02T04:07:19.225Z,195.40
2022-11-02T04:09:45.524Z,187.13
2022-11-02T04:12:11.902Z,186.63
2022-11-02T04:14:38.401Z,184.38
2022-11-02T04:17:04.703Z,184.52
2022-11-02T04:19:30.937Z,180.38
2022-11-02T04:21:57.370Z,181.45
2022-11-02T04:24:23.754Z,175.73
2022-11-02T04:26:50.035Z,176.02
2022-11-02T04:29:16.424Z,175.02
2022-11-02T04:31:42.706Z,173.35
2022-11-02T04:34:09.022Z,170.95
2022-11-02T04:36:35.294Z,167.82
2022-11-02T04:39:01.711Z,163.27
2022-11-02T04:41:27.983Z,163.45
2022-11-02T04:43:54.248Z,160.95
2022-11-02T04:46:20.555Z,161.55
2022-11-02T04:48:46.920Z,158.45
2022-11-02T04:51:13.243Z,154.73
2022-11-02T04:53:41.067Z,155.27
2022-11-02T04:56:07.393Z,154.18
2022-11-02T04:58:33.716Z,152.48
2022-11-02T05:01:00.051Z,150.98
2022-11-02T05:03:26.553Z,146.90
2022-11-02T05:05:52.867Z,143.07
2022-11-02T05:08:22.472Z,143.30
2022-11-02T05:10:48.752Z,141.65
2022-11-02T05:13:15.259Z,141.57
2022-11-02T05:15:41.559Z,139.55
2022-11-02T05:18:08.262Z,137.93
2022-11-02T05:20:34.720Z,135.05
2022-11-02T05:23:01.317Z,134.48
2022-11-02T05:25:27.872Z,135.95
2022-11-02T05:27:54.549Z,130.65
2022-11-02T05:30:20.868Z,128.38
2022-11-02T05:32:47.260Z,128.73
2022-11-02T05:35:13.576Z,124.13
2022-11-02T05:37:39.929Z,125.13
2022-11-02T05:40:06.232Z,127.35
2022-11-02T05:42:32.518Z,122.60
2022-11-02T05:44:58.804Z,121.70
2022-11-02T05:47:25.208Z,119.82
2022-11-02T05:49:51.474Z,118.22
2022-11-02T05:52:17.920Z,118.15
2022-11-02T05:54:44.215Z,116.05
2022-11-02T05:57:10.614Z,113.82
2022-11-02T05:59:36.872Z,112.40
2022-11-02T06:02:03.298Z,111.13
2022-11-02T06:04:29.669Z,109.25
2022-11-02T06:06:55.979Z,110.18
2022-11-02T06:09:22.351Z,109.80
2022-11-02T06:11:48.628Z,107.88
2022-11-02T06:14:15.059Z,108.68
2022-11-02T06:16:41.467Z,108.07
2022-11-02T06:19:07.782Z,103.90
2022-11-02T06:21:34.143Z,101.18
2022-11-02T06:24:00.536Z,102.95
2022-11-02T06:26:26.916Z,99.85
2022-11-02T06:28:53.256Z,102.18
2022-11-02T06:31:19.622Z,98.57
2022-11-02T06:33:45.852Z,94.93
2022-11-02T06:36:12.160Z,92.63
2022-11-02T06:38:38.488Z,92.03
2022-11-02T06:41:04.787Z,92.00
2022-11-02T06:43:31.079Z,92.22
2022-11-02T06:45:57.344Z,89.45
2022-11-02T06:48:23.654Z,88.35
2022-11-02T06:50:49.891Z,88.22
2022-11-02T06:53:16.271Z,83.88
2022-11-02T06:55:42.536Z,83.20
2022-11-02T06:58:08.891Z,82.70
2022-11-02T07:00:35.226Z,83.90
2022-11-02T07:03:01.912Z,84.25
2022-11-02T07:05:28.303Z,81.03
2022-11-02T07:07:54.647Z,77.50
2022-11-02T07:10:21.131Z,76.90
2022-11-02T07:12:47.509Z,78.05
2022-11-02T07:15:13.802Z,80.90
2022-11-02T07:17:40.087Z,74.25
2022-11-02T07:20:06.468Z,78.00
2022-11-02T07:22:32.960Z,72.90
2022-11-02T07:24:59.361Z,71.82
2022-11-02T07:27:25.640Z,71.53
2022-11-02T07:29:51.928Z,71.57
2022-11-02T07:32:18.284Z,70.50
2022-11-02T07:34:44.740Z,69.78
2022-11-02T07:37:11.056Z,70.18
2022-11-02T07:39:37.449Z,67.90
2022-11-02T07:42:07.229Z,66.00
2022-11-02T07:44:33.570Z,68.65
2022-11-02T07:46:59.841Z,67.55
2022-11-02T07:49:26.240Z,66.93
2022-11-02T07:51:52.830Z,64.57
2022-11-02T07:54:19.669Z,64.25
2022-11-02T07:56:46.063Z,64.15
2022-11-02T07:59:12.423Z,61.50
2022-11-02T08:01:38.811Z,62.00
2022-11-02T08:04:05.218Z,61.88
2022-11-02T08:06:31.576Z,59.05
2022-11-02T08:08:57.908Z,58.72
2022-11-02T08:11:24.207Z,60.47
2022-11-02T08:13:50.528Z,57.75
2022-11-02T08:16:16.898Z,57.03
2022-11-02T08:18:43.229Z,56.92
2022-11-02T08:21:09.566Z,55.08
2022-11-02T08:23:35.846Z,54.78
2022-11-02T08:26:02.110Z,53.38
2022-11-02T08:28:28.410Z,53.95
2022-11-02T08:30:54.739Z,50.45
2022-11-02T08:33:21.186Z,51.67
2022-11-02T08:35:47.499Z,52.75
2022-11-02T08:38:13.863Z,49.75
2022-11-02T08:40:40.151Z,50.95
2022-11-02T08:43:06.468Z,49.25
2022-11-02T08:45:54.211Z,51.28
2022-11-02T08:48:19.454Z,47.67
2022-11-02T08:50:45.824Z,47.88
2022-11-02T08:53:12.565Z,46.25
2022-11-02T08:55:39.067Z,45.75
2022-11-02T08:58:05.889Z,45.50
2022-11-02T09:00:32.642Z,46.03
2022-11-02T09:02:59.231Z,45.92
2022-11-02T09:05:25.610Z,45.40
2022-11-02T09:07:51.930Z,42.90
2022-11-02T09:10:18.235Z,42.22
2022-11-02T09:12:44.892Z,43.00
2022-11-02T09:15:11.187Z,41.47
2022-11-02T09:17:37.739Z,39.65
2022-11-02T09:20:03.992Z,41.58
2022-11-02T09:22:30.288Z,39.80
2022-11-02T09:24:56.692Z,39.00
2022-11-02T09:27:23.025Z,38.13
2022-11-02T09:29:49.482Z,38.83
2022-11-02T09:32:15.740Z,39.47
2022-11-02T09:34:42.080Z,39.20
2022-11-02T09:37:08.510Z,39.08
2022-11-02T09:39:34.806Z,37.20
2022-11-02T09:42:01.266Z,36.65
2022-11-02T09:44:27.681Z,36.80
2022-11-02T09:47:27.763Z,37.55
2022-11-02T09:49:40.286Z,35.15
2022-11-02T09:52:07.136Z,34.20
2022-11-02T09:54:33.490Z,34.33
2022-11-02T09:56:59.991Z,34.53
2022-11-02T09:59:26.385Z,34.75
2022-11-02T10:01:52.869Z,33.13
2022-11-02T10:04:19.233Z,33.75
2022-11-02T10:06:45.544Z,31.70
2022-11-02T10:09:11.959Z,32.45
2022-11-02T10:14:09.766Z,32.50
2022-11-02T10:16:36.027Z,31.65
2022-11-02T10:19:02.313Z,29.67
2022-11-02T10:21:28.600Z,30.08
2022-11-02T10:23:55.093Z,32.42
2022-11-02T10:26:21.440Z,31.17
2022-11-02T10:28:47.771Z,30.63
2022-11-02T10:31:15.721Z,29.48
2022-11-02T10:33:42.228Z,29.60
2022-11-02T10:36:23.954Z,28.45
2022-11-02T10:38:50.399Z,27.85
2022-11-02T10:41:16.671Z,27.85
2022-11-02T10:43:43.839Z,28.10
2022-11-02T10:46:11.514Z,28.23
2022-11-02T10:48:37.874Z,27.25
2022-11-02T10:51:04.157Z,26.92
2022-11-02T10:53:46.278Z,26.67
2022-11-02T10:56:12.840Z,24.42
2022-11-02T10:58:39.099Z,25.10
2022-11-02T11:01:05.714Z,25.00
2022-11-02T11:03:32.082Z,24.63
2022-11-02T11:05:58.565Z,25.65
2022-11-02T11:08:25.009Z,25.50
2022-11-02T11:10:51.325Z,24.15
2022-11-02T11:16:04.018Z,24.10
2022-11-02T11:21:16.810Z,22.52
2022-11-02T11:23:43.182Z,21.77
2022-11-02T11:26:09.539Z,23.25
2022-11-02T11:28:35.836Z,21.88
2022-11-02T11:31:02.182Z,21.80
2022-11-02T11:33:28.499Z,22.30
2022-11-02T11:35:54.780Z,21.50
2022-11-02T11:38:21.090Z,20.45
2022-11-02T11:40:47.427Z,21.08
2022-11-02T11:45:42.933Z,19.42
2022-11-02T11:48:10.249Z,20.48
2022-11-02T11:50:36.644Z,20.80
2022-11-02T11:53:11.707Z,19.83
2022-11-02T11:55:37.983Z,20.77
2022-11-02T11:58:04.697Z,19.33
2022-11-02T12:00:31.237Z,20.73
2022-11-02T12:02:57.881Z,19.80
2022-11-02T12:08:03.977Z,18.52
2022-11-02T12:10:30.365Z,19.45
2022-11-02T12:12:56.770Z,18.52
2022-11-02T12:15:23.310Z,17.52
2022-11-02T12:17:49.697Z,19.45
2022-11-02T12:20:16.331Z,18.92
2022-11-02T12:22:42.654Z,18.02
2022-11-02T12:25:08.897Z,18.83
2022-11-02T12:27:35.379Z,18.02
2022-11-02T12:30:01.779Z,17.92
2022-11-02T12:35:23.483Z,17.80
2022-11-02T12:37:49.597Z,16.15
2022-11-02T12:40:15.998Z,19.35
2022-11-02T12:42:43.351Z,19.08
2022-11-02T12:45:09.870Z,17.98
2022-11-02T12:47:36.194Z,18.20
2022-11-02T12:50:02.495Z,18.83
2022-11-02T12:52:28.822Z,18.23
2022-11-02T12:54:55.168Z,17.85
2022-11-02T12:57:21.557Z,17.50
2022-11-02T12:59:47.907Z,17.15
2022-11-02T13:02:14.313Z,17.05
2022-11-02T13:04:40.676Z,17.23
2022-11-02T13:07:07.096Z,16.70
2022-11-02T13:09:33.490Z,17.08
2022-11-02T13:11:59.768Z,16.30
2022-11-02T13:14:26.076Z,16.52
2022-11-02T13:16:52.392Z,15.80
2022-11-02T13:19:18.693Z,16.50
2022-11-02T13:21:45.097Z,17.42
2022-11-02T13:24:11.495Z,15.48
2022-11-02T13:26:37.978Z,15.13
2022-11-02T13:29:04.284Z,15.35
2022-11-02T13:31:30.604Z,15.45
2022-11-02T13:33:56.878Z,14.60
2022-11-02T13:36:23.381Z,14.65
2022-11-02T13:38:50.125Z,14.55
2022-11-02T13:41:16.520Z,14.02
2022-11-02T13:43:43.012Z,13.30
2022-11-02T13:46:09.349Z,13.75
2022-11-02T13:48:35.875Z,13.45
2022-11-02T13:51:02.262Z,13.88
2022-11-02T13:53:28.586Z,12.13
2022-11-02T13:55:55.309Z,12.07
2022-11-02T13:58:21.670Z,12.18
2022-11-02T14:00:48.070Z,12.02
2022-11-02T14:03:14.635Z,12.30
2022-11-02T14:05:41.144Z,13.18
2022-11-02T14:08:08.013Z,12.80
2022-11-02T14:10:34.767Z,12.52
2022-11-02T14:13:01.136Z,11.32
2022-11-02T14:15:27.767Z,11.65
2022-11-02T14:17:54.279Z,11.25
2022-11-02T14:20:20.642Z,12.13
2022-11-02T14:22:47.060Z,11.75
2022-11-02T14:25:13.433Z,10.15
2022-11-02T14:27:40.139Z,11.15
2022-11-02T14:30:06.450Z,10.88
2022-11-02T14:32:32.714Z,10.85
2022-11-02T14:34:59.091Z,11.73
2022-11-02T14:37:25.476Z,11.23
2022-11-02T14:39:51.796Z,10.77
2022-11-02T14:42:18.080Z,10.60
2022-11-02T14:44:44.472Z,9.85
2022-11-02T14:47:10.858Z,10.02
2022-11-02T14:49:37.264Z,10.25
2022-11-02T14:52:04.655Z,10.00
2022-11-02T14:54:31.409Z,10.27
2022-11-02T14:56:58.215Z,9.02
2022-11-02T14:59:24.492Z,10.45
2022-11-02T15:01:50.786Z,9.50
2022-11-02T15:04:17.335Z,9.73
2022-11-02T15:06:43.783Z,9.63
2022-11-02T15:09:10.155Z,9.20
2022-11-02T15:11:36.668Z,9.70
2022-11-02T15:14:02.930Z,9.38
2022-11-02T15:16:29.261Z,9.27
2022-11-02T15:18:55.758Z,9.10
2022-11-02T15:21:22.042Z,9.45
2022-11-02T15:23:48.363Z,8.93
2022-11-02T15:26:14.800Z,10.00
2022-11-02T15:28:41.127Z,9.77
2022-11-02T15:31:07.751Z,9.60
2022-11-02T15:33:34.070Z,9.40
2022-11-02T15:36:00.436Z,10.05
2022-11-02T15:38:32.540Z,8.55
2022-11-02T15:41:05.973Z,9.23
2022-11-02T15:43:32.667Z,8.75
2022-11-02T15:46:03.564Z,9.48
2022-11-02T15:48:33.197Z,9.02
2022-11-02T15:50:59.491Z,8.55
2022-11-02T15:53:25.851Z,8.57
2022-11-02T15:55:52.149Z,9.55
2022-11-02T15:58:21.275Z,8.45
2022-11-02T16:00:47.652Z,8.95
2022-11-02T16:03:14.752Z,8.85
2022-11-02T16:05:41.220Z,8.75
2022-11-02T16:08:11.358Z,8.55
2022-11-02T16:13:04.282Z,8.48
2022-11-02T16:15:30.623Z,8.45
2022-11-02T16:17:56.962Z,8.88
2022-11-02T16:20:23.404Z,7.88
2022-11-02T16:22:49.873Z,7.82
2022-11-02T16:25:16.162Z,7.88
2022-11-02T16:27:42.496Z,7.65
2022-11-02T16:30:08.903Z,7.68
2022-11-02T16:32:35.229Z,7.72
2022-11-02T16:35:01.506Z,8.05
2022-11-02T16:37:27.931Z,7.45
2022-11-02T16:39:54.421Z,7.53
2022-11-02T16:42:20.707Z,7.97
2022-11-02T16:44:47.073Z,6.97
2022-11-02T16:47:13.458Z,7.32
2022-11-02T16:49:39.948Z,8.05
2022-11-02T16:52:06.346Z,7.05
2022-11-02T16:54:32.818Z,6.30
2022-11-02T16:56:59.113Z,6.80
2022-11-02T16:59:25.545Z,7.57
2022-11-02T17:01:51.938Z,7.05
2022-11-02T17:04:18.303Z,5.78
2022-11-02T17:06:44.619Z,6.82
2022-11-02T17:09:11.060Z,6.70
2022-11-02T17:11:37.568Z,6.63
2022-11-02T17:14:04.069Z,7.00
2022-11-02T17:16:30.455Z,6.95
2022-11-02T17:18:56.742Z,6.55
2022-11-02T17:21:23.059Z,5.85
2022-11-02T17:23:49.574Z,5.97
2022-11-02T17:26:15.885Z,7.13
2022-11-02T17:28:42.458Z,6.72
2022-11-02T17:31:08.998Z,6.13
2022-11-02T17:33:35.540Z,6.32
2022-11-02T17:36:01.947Z,7.03
2022-11-02T17:38:28.268Z,6.45
2022-11-02T17:40:54.654Z,6.47
2022-11-02T17:43:21.003Z,6.13
2022-11-02T17:45:47.328Z,6.57
2022-11-02T17:48:13.685Z,5.93
2022-11-02T17:50:39.983Z,5.95
2022-11-02T17:53:06.379Z,5.65
2022-11-02T17:55:32.700Z,5.80
2022-11-02T17:57:59.023Z,6.20
2022-11-02T18:00:25.335Z,6.22
2022-11-02T18:02:51.741Z,5.65
2022-11-02T18:05:18.052Z,6.00
2022-11-02T18:07:44.412Z,5.85
2022-11-02T18:10:10.748Z,5.72
2022-11-02T18:12:37.129Z,5.70
2022-11-02T18:15:03.759Z,6.05
2022-11-02T18:17:34.789Z,5.38
2022-11-02T18:20:01.635Z,5.18
2022-11-02T18:22:28.316Z,5.07
2022-11-02T18:24:54.640Z,5.72
2022-11-02T18:27:23.678Z,5.40
2022-11-02T18:29:51.238Z,5.47
2022-11-02T18:32:17.676Z,5.50
2022-11-02T18:34:44.242Z,5.70
2022-11-02T18:37:10.584Z,5.97
2022-11-02T18:39:37.067Z,5.57
2022-11-02T18:42:03.478Z,5.07
2022-11-02T18:44:29.790Z,5.75
2022-11-02T18:46:56.107Z,5.53
2022-11-02T18:49:22.461Z,5.88
2022-11-02T18:51:48.739Z,5.60
2022-11-02T18:54:15.059Z,5.10
2022-11-02T18:56:41.640Z,4.50
2022-11-02T18:59:08.204Z,4.88
2022-11-02T19:01:34.713Z,4.70
2022-11-02T19:04:01.194Z,5.38
2022-11-02T19:06:27.526Z,5.05
2022-11-02T19:08:53.842Z,5.50
2022-11-02T19:11:20.131Z,5.43
2022-11-02T19:13:46.561Z,4.93
2022-11-02T19:16:12.847Z,4.70
2022-11-02T19:18:39.316Z,4.82
2022-11-02T19:21:05.626Z,4.50
2022-11-02T19:23:31.909Z,4.75
2022-11-02T19:25:58.231Z,5.07
2022-11-02T19:28:24.576Z,4.63
2022-11-02T19:30:50.917Z,4.53
2022-11-02T19:33:17.226Z,5.13
2022-11-02T19:35:43.574Z,4.90
2022-11-02T19:38:09.910Z,5.00
2022-11-02T19:40:36.195Z,4.50
2022-11-02T19:43:02.912Z,4.65
2022-11-02T19:45:29.534Z,4.18
2022-11-02T19:47:55.977Z,4.57
2022-11-02T19:50:22.890Z,4.75
2022-11-02T19:52:49.270Z,4.88
2022-11-02T19:55:15.625Z,4.60
2022-11-02T19:57:41.919Z,5.03
2022-11-02T20:00:08.241Z,4.35
2022-11-02T20:02:34.624Z,4.50
2022-11-02T20:05:01.019Z,4.70
2022-11-02T20:07:27.397Z,4.50
2022-11-02T20:09:57.154Z,4.10
2022-11-02T20:12:25.103Z,4.68
2022-11-02T20:14:51.458Z,4.05
2022-11-02T20:17:31.172Z,4.70
2022-11-02T20:19:59.911Z,4.18
2022-11-02T20:22:26.240Z,4.78
2022-11-02T20:24:52.602Z,4.20
2022-11-02T20:27:18.956Z,3.90
2022-11-02T20:29:45.208Z,4.45
2022-11-02T20:32:11.473Z,4.00
2022-11-02T20:34:37.905Z,3.70
2022-11-02T20:37:04.251Z,4.25
2022-11-02T20:39:30.709Z,4.05
2022-11-02T20:41:56.989Z,4.22
2022-11-02T20:44:23.392Z,4.30
2022-11-02T20:46:53.073Z,4.07
2022-11-02T20:51:55.544Z,4.10
2022-11-02T20:54:21.910Z,4.18
2022-11-02T20:56:48.215Z,4.72
2022-11-02T20:59:14.654Z,4.30
2022-11-02T21:01:41.200Z,4.32
2022-11-02T21:04:07.889Z,4.18
2022-11-02T21:06:34.201Z,4.07
2022-11-02T21:09:00.813Z,3.65
2022-11-02T21:11:27.611Z,4.28
2022-11-02T21:13:53.931Z,3.78
2022-11-02T21:16:20.262Z,4.00
2022-11-02T21:18:46.516Z,4.13
2022-11-02T21:21:12.910Z,3.75
2022-11-02T21:23:39.283Z,3.97
2022-11-02T21:26:05.574Z,3.65
2022-11-02T21:28:31.952Z,3.90
2022-11-02T21:31:00.074Z,4.07
2022-11-02T21:33:28.026Z,3.33
2022-11-02T21:35:54.418Z,3.80
2022-11-02T21:38:20.745Z,3.90
2022-11-02T21:40:47.199Z,3.70
2022-11-02T21:43:14.036Z,3.85
2022-11-02T21:45:40.403Z,3.80
2022-11-02T21:48:06.690Z,3.63
2022-11-02T21:50:33.103Z,3.80
2022-11-02T21:52:59.614Z,3.53
2022-11-02T21:55:25.931Z,3.75
2022-11-02T21:57:52.353Z,3.72
2022-11-02T22:00:18.732Z,3.42
2022-11-02T22:02:45.187Z,3.55
2022-11-02T22:05:11.545Z,3.75
2022-11-02T22:07:38.340Z,3.63
2022-11-02T22:10:04.828Z,3.67
2022-11-02T22:12:31.328Z,3.22
2022-11-02T22:14:57.647Z,3.17
2022-11-02T22:17:50.368Z,3.97
2022-11-02T22:20:10.502Z,3.30
2022-11-02T22:22:36.829Z,3.20
2022-11-02T22:25:03.241Z,3.20
2022-11-02T22:27:29.603Z,3.40
2022-11-02T22:29:55.948Z,3.38
2022-11-02T22:32:22.200Z,3.63
2022-11-02T22:34:48.523Z,3.40
2022-11-02T22:37:14.870Z,3.38
2022-11-02T22:39:41.253Z,3.30
2022-11-02T22:42:07.538Z,3.17
2022-11-02T22:44:33.835Z,3.33
2022-11-02T22:47:00.123Z,3.20
2022-11-02T22:49:26.472Z,3.45
2022-11-02T22:51:52.824Z,3.10
2022-11-02T22:54:19.319Z,3.22
2022-11-02T22:56:45.674Z,3.28
2022-11-02T22:59:11.968Z,3.65
2022-11-02T23:01:38.453Z,3.10
2022-11-02T23:04:05.288Z,3.28
2022-11-02T23:06:32.044Z,3.45
2022-11-02T23:09:01.322Z,3.40
2022-11-02T23:11:27.868Z,3.47
2022-11-02T23:13:54.227Z,3.30
2022-11-02T23:16:20.497Z,3.45
2022-11-02T23:18:46.941Z,3.10
2022-11-02T23:21:13.337Z,3.10
2022-11-02T23:23:39.872Z,3.30
2022-11-02T23:26:06.237Z,3.40
2022-11-02T23:28:32.523Z,2.85
2022-11-02T23:30:58.835Z,3.03
2022-11-02T23:33:25.524Z,2.80
2022-11-02T23:35:51.836Z,3.30
2022-11-02T23:38:18.460Z,2.95
2022-11-02T23:40:44.732Z,3.33
2022-11-02T23:43:11.022Z,3.65
2022-11-02T23:45:37.439Z,3.03
2022-11-02T23:48:03.946Z,3.03
2022-11-02T23:50:30.462Z,3.35
2022-11-02T23:52:56.759Z,3.40
2022-11-02T23:55:23.173Z,2.80
2022-11-02T23:57:49.712Z,3.10
